Terminal Aerodrome Forecast
Issued by NWS Tallahassee, FL

Current Version | Previous Version | Text Only | Print | Product List | Glossary On
Versions: 1 2 3 4 5 6 7 8 9 10 11 12
000
FTUS42 KTAE 051730
TAFTLH
TAF
KTLH 051730Z 0518/0618 08010G15KT P6SM SCT050 BKN250
     FM060000 08005KT P6SM BKN045
     FM061200 06008KT P6SM SCT040 SCT250=

USA.gov is the U.S. government's official web portal to all federal, state and local government web resources and services.